Time;durP1;ratioP1;P1;durP2;ratioP2;P2;SDS_P1;SDS_P2;PMS_P1;PMS_P2;Temp;Humidity;BMP_temperature;BMP_pressure;BME280_temperature;BME280_humidity;BME280_pressure;Samples;Min_cycle;Max_cycle;Signal;HPM_P1;HPM_P2
2021/04/10 00:02:05;;;;;;;34.42;12.35;;;;;;;6.89;64.81;100548.59;4425895;32;20147;-72
2021/04/10 00:04:30;;;;;;;27.35;12.07;;;;;;;7.02;64.58;100553.22;4427323;32;20196;-73
2021/04/10 00:06:56;;;;;;;28.90;12.93;;;;;;;7.03;64.28;100556.81;4425354;32;20470;-74
2021/04/10 00:09:22;;;;;;;35.15;13.70;;;;;;;7.07;63.81;100552.78;4425597;32;20069;-74
2021/04/10 00:11:47;;;;;;;20.90;10.85;;;;;;;7.08;63.83;100559.94;4424885;32;20104;-74
2021/04/10 00:14:14;;;;;;;31.12;12.18;;;;;;;7.11;63.84;100564.69;4425255;32;20026;-73
2021/04/10 00:16:40;;;;;;;26.25;10.95;;;;;;;7.20;63.95;100561.38;4423193;32;20100;-72
2021/04/10 00:19:06;;;;;;;19.45;9.57;;;;;;;7.23;63.86;100555.75;4425753;32;20029;-74
2021/04/10 00:21:32;;;;;;;21.77;9.30;;;;;;;7.44;63.27;100561.06;4426281;32;20519;-74
2021/04/10 00:23:59;;;;;;;17.92;8.43;;;;;;;7.32;63.69;100566.41;4425761;32;20452;-72
2021/04/10 00:26:25;;;;;;;17.42;7.93;;;;;;;7.39;63.42;100555.91;4423738;32;20073;-72
2021/04/10 00:28:51;;;;;;;14.23;7.35;;;;;;;7.42;63.40;100559.88;4424085;32;20111;-73
2021/04/10 00:31:17;;;;;;;20.30;8.63;;;;;;;7.40;63.60;100557.50;4428453;32;20033;-72
2021/04/10 00:33:43;;;;;;;19.75;8.43;;;;;;;7.39;63.55;100557.91;4428592;32;20095;-72
2021/04/10 00:36:09;;;;;;;20.42;9.27;;;;;;;7.41;63.44;100556.31;4425412;32;20820;-73
2021/04/10 00:38:36;;;;;;;22.83;9.98;;;;;;;7.57;62.92;100562.06;4428278;32;20404;-73
2021/04/10 00:41:03;;;;;;;25.85;10.65;;;;;;;7.38;62.38;100562.75;4428634;32;20106;-74
2021/04/10 00:43:29;;;;;;;21.33;9.88;;;;;;;7.41;61.91;100564.69;4426156;32;20416;-75
2021/04/10 00:45:55;;;;;;;20.85;9.75;;;;;;;7.33;61.64;100559.63;4424922;32;20481;-75
2021/04/10 00:48:21;;;;;;;21.48;9.55;;;;;;;7.25;61.57;100564.53;4427384;32;20956;-73
2021/04/10 00:50:48;;;;;;;24.52;11.27;;;;;;;7.30;61.44;100557.69;4424370;32;20041;-74
2021/04/10 00:53:15;;;;;;;22.83;9.70;;;;;;;7.04;62.02;100562.00;4427839;32;20125;-75
2021/04/10 00:55:45;;;;;;;18.37;10.05;;;;;;;6.92;62.59;100561.75;4425317;32;20045;-73
2021/04/10 00:58:11;;;;;;;18.70;9.48;;;;;;;6.84;62.85;100561.03;4428315;32;20458;-76
2021/04/10 01:00:37;;;;;;;22.83;9.13;;;;;;;6.74;62.83;100555.56;4426212;32;20148;-74
2021/04/10 01:03:03;;;;;;;18.12;9.10;;;;;;;6.64;63.32;100550.91;4425174;32;20046;-74
2021/04/10 01:05:29;;;;;;;23.65;10.30;;;;;;;6.53;64.04;100561.41;4427522;32;20084;-75
2021/04/10 01:07:55;;;;;;;27.50;9.57;;;;;;;6.48;64.26;100561.84;4426396;32;20465;-73
2021/04/10 01:10:22;;;;;;;18.35;8.93;;;;;;;6.52;64.04;100563.41;4424272;32;20061;-73
2021/04/10 01:15:53;;;;;;;23.02;9.43;;;;;;;6.81;63.43;100564.66;3982265;32;15154198;-76
2021/04/10 01:18:27;;;;;;;22.75;9.18;;;;;;;6.81;63.43;100564.66;4441643;32;20404;-76
2021/04/10 01:21:22;;;;;;;16.70;8.75;;;;;;;6.43;64.35;100565.09;4441712;32;20077;-74
2021/04/10 01:29:59;;;;;;;23.00;9.18;;;;;;;6.39;64.30;100564.34;3987418;32;15024827;-74
2021/04/10 01:32:30;;;;;;;23.10;10.23;;;;;;;6.11;65.42;100555.00;4439444;32;20100;-74
2021/04/10 01:35:06;;;;;;;27.48;10.10;;;;;;;6.07;66.09;100554.25;4433967;32;20041;-73
2021/04/10 01:37:36;;;;;;;25.90;9.88;;;;;;;6.08;66.30;100555.06;4434211;32;20033;-74
2021/04/10 01:40:02;;;;;;;20.27;9.48;;;;;;;6.14;66.16;100561.81;4436611;32;20065;-75
2021/04/10 01:42:30;;;;;;;26.87;10.32;;;;;;;6.24;65.98;100566.50;4437126;32;20096;-74
2021/04/10 01:44:58;;;;;;;22.42;9.15;;;;;;;6.28;65.76;100549.66;4440305;32;20030;-73
2021/04/10 01:47:24;;;;;;;26.48;9.27;;;;;;;6.27;65.82;100557.28;4433706;32;20088;-75
2021/04/10 01:49:50;;;;;;;23.05;9.25;;;;;;;6.30;65.52;100559.25;4436033;32;20386;-74
2021/04/10 01:52:18;;;;;;;22.13;9.32;;;;;;;6.38;65.38;100559.97;4435029;32;20017;-74
2021/04/10 01:54:44;;;;;;;18.12;9.43;;;;;;;6.45;65.07;100563.50;4434842;32;20149;-75
2021/04/10 01:57:11;;;;;;;21.77;9.48;;;;;;;6.51;64.03;100547.84;4439263;32;20407;-74
2021/04/10 01:59:41;;;;;;;20.42;8.98;;;;;;;6.48;63.95;100561.84;4437039;32;20470;-74
2021/04/10 02:02:08;;;;;;;21.40;9.20;;;;;;;6.56;63.53;100557.78;4436462;32;20037;-74
2021/04/10 02:04:37;;;;;;;15.73;9.07;;;;;;;6.58;63.52;100558.94;4444056;32;20094;-74
2021/04/10 02:07:03;;;;;;;23.87;9.60;;;;;;;6.61;63.79;100562.91;4440124;32;20084;-74
2021/04/10 02:09:31;;;;;;;19.67;9.85;;;;;;;6.56;63.80;100555.78;4442021;32;20093;-74
2021/04/10 02:11:58;;;;;;;16.73;9.25;;;;;;;6.53;63.93;100561.41;4439751;32;20511;-75
2021/04/10 02:14:25;;;;;;;19.02;8.57;;;;;;;6.55;63.39;100561.78;4439910;32;20102;-74
2021/04/10 02:16:51;;;;;;;20.90;9.15;;;;;;;6.54;63.10;100566.59;4441556;32;20029;-74
2021/04/10 02:19:17;;;;;;;25.77;9.43;;;;;;;6.65;62.82;100563.66;4444344;32;20073;-74
2021/04/10 02:21:43;;;;;;;21.20;9.32;;;;;;;6.52;63.55;100565.41;4443204;32;20129;-74
2021/04/10 02:24:10;;;;;;;22.60;9.88;;;;;;;6.56;63.69;100557.78;4442292;32;20107;-74
2021/04/10 02:26:36;;;;;;;24.70;9.65;;;;;;;6.43;63.65;100553.91;4441589;32;20030;-72
2021/04/10 02:29:03;;;;;;;21.80;10.25;;;;;;;6.50;63.03;100549.03;4442924;32;20394;-73
2021/04/10 02:34:11;;;;;;;19.95;10.10;;;;;;;6.97;63.00;100558.50;3983388;32;15023899;-75
2021/04/10 02:36:39;;;;;;;23.85;10.00;;;;;;;6.97;63.00;100558.50;4436756;32;20069;-74
2021/04/10 02:39:07;;;;;;;23.73;10.18;;;;;;;6.48;63.98;100567.44;4435627;32;20110;-74
2021/04/10 02:41:35;;;;;;;18.67;9.43;;;;;;;6.56;63.66;100563.38;4436262;32;20096;-74
2021/04/10 02:44:06;;;;;;;21.48;10.40;;;;;;;6.47;63.95;100568.66;4438078;32;20086;-73
2021/04/10 02:46:36;;;;;;;22.73;9.57;;;;;;;6.54;64.33;100561.00;4436909;32;20045;-73
2021/04/10 02:51:48;;;;;;;26.05;10.32;;;;;;;7.16;62.92;100569.03;3987590;32;15026854;-72
2021/04/10 02:54:19;;;;;;;27.30;10.38;;;;;;;7.16;62.92;100569.03;4440116;32;20179;-72
2021/04/10 02:56:51;;;;;;;25.58;10.27;;;;;;;6.75;63.13;100565.56;4437883;32;20129;-73
2021/04/10 02:59:20;;;;;;;27.98;10.40;;;;;;;6.71;63.43;100570.38;4436690;32;20423;-72
2021/04/10 03:01:46;;;;;;;21.20;10.00;;;;;;;6.68;64.05;100572.00;4424883;32;20042;-72
2021/04/10 03:04:12;;;;;;;21.15;9.63;;;;;;;6.62;63.85;100572.87;4421903;32;20088;-73
2021/04/10 03:06:39;;;;;;;21.87;9.80;;;;;;;6.72;63.80;100578.34;4422801;32;20053;-72
2021/04/10 03:09:07;;;;;;;23.45;9.57;;;;;;;6.76;63.55;100581.94;4422300;32;20411;-75
2021/04/10 03:11:33;;;;;;;21.42;9.98;;;;;;;6.81;63.77;100573.06;4420693;32;20077;-73
2021/04/10 03:13:59;;;;;;;22.00;10.48;;;;;;;6.84;63.54;100574.25;4419054;32;20026;-75
2021/04/10 03:16:29;;;;;;;23.92;10.10;;;;;;;6.95;63.63;100577.69;4426368;32;20147;-73
2021/04/10 03:18:57;;;;;;;23.70;10.70;;;;;;;6.98;63.71;100569.28;4422863;32;20174;-73
2021/04/10 03:21:23;;;;;;;18.90;10.10;;;;;;;6.96;64.16;100570.91;4421636;32;20050;-73
2021/04/10 03:23:49;;;;;;;24.02;9.80;;;;;;;7.16;63.71;100567.03;4419028;32;20051;-74
2021/04/10 03:26:18;;;;;;;22.58;9.82;;;;;;;7.16;63.70;100567.03;4422076;32;20654;-72
2021/04/10 03:28:44;;;;;;;19.85;10.18;;;;;;;7.27;63.31;100570.47;4422748;32;20088;-72
2021/04/10 03:31:12;;;;;;;24.35;10.10;;;;;;;7.31;63.17;100567.66;4419074;32;20026;-73
2021/04/10 03:33:38;;;;;;;21.15;10.40;;;;;;;7.33;63.25;100570.81;4421316;32;20030;-73
2021/04/10 03:36:05;;;;;;;23.23;10.93;;;;;;;7.37;63.65;100577.16;4422569;32;20511;-73
2021/04/10 03:38:32;;;;;;;23.52;11.05;;;;;;;7.50;64.22;100570.56;4420853;32;20038;-73
2021/04/10 03:40:59;;;;;;;26.65;11.05;;;;;;;7.48;64.60;100566.59;4422903;32;20320;-73
2021/04/10 03:43:26;;;;;;;25.75;10.90;;;;;;;7.53;65.02;100563.31;4425441;32;20106;-72
2021/04/10 03:45:51;;;;;;;23.48;11.80;;;;;;;7.47;65.75;100568.63;4423545;32;20072;-73
2021/04/10 03:48:18;;;;;;;30.95;11.90;;;;;;;7.50;66.68;100572.56;4417634;32;20030;-73
2021/04/10 03:50:44;;;;;;;24.30;10.88;;;;;;;7.36;68.08;100570.75;4420979;32;20042;-73
2021/04/10 03:53:09;;;;;;;25.67;11.90;;;;;;;7.24;68.56;100564.94;4421754;32;20103;-73
2021/04/10 03:55:35;;;;;;;26.65;10.88;;;;;;;7.17;68.96;100574.22;4423602;32;20667;-72
2021/04/10 03:58:03;;;;;;;23.20;10.57;;;;;;;7.06;69.89;100583.97;4422737;32;20109;-72
2021/04/10 04:00:29;;;;;;;22.40;10.25;;;;;;;6.73;71.58;100577.16;4421808;32;20065;-70
2021/04/10 04:02:57;;;;;;;26.27;11.15;;;;;;;6.66;72.97;100582.81;4411447;32;20068;-71
2021/04/10 04:05:24;;;;;;;25.10;10.13;;;;;;;6.65;73.35;100574.84;4411855;32;20426;-71
2021/04/10 04:07:50;;;;;;;26.37;12.05;;;;;;;6.69;74.14;100584.00;4408098;32;20050;-71
2021/04/10 04:10:16;;;;;;;23.60;11.38;;;;;;;6.70;74.47;100580.00;4408710;32;20411;-71
2021/04/10 04:12:42;;;;;;;24.73;12.07;;;;;;;6.73;74.65;100584.75;4409690;32;21084;-71
2021/04/10 04:15:09;;;;;;;25.80;13.18;;;;;;;6.74;74.76;100578.75;4410977;32;20143;-71
2021/04/10 04:17:35;;;;;;;33.33;14.20;;;;;;;6.72;74.83;100583.94;4408353;32;20065;-71
2021/04/10 04:20:01;;;;;;;25.30;12.05;;;;;;;6.75;75.65;100585.13;4410582;32;20025;-70
2021/04/10 04:22:27;;;;;;;30.20;14.32;;;;;;;6.76;76.21;100586.72;4409299;32;20489;-71
2021/04/10 04:24:53;;;;;;;27.27;13.38;;;;;;;6.75;76.61;100587.94;4411486;32;20056;-71
2021/04/10 04:27:18;;;;;;;27.73;13.32;;;;;;;6.75;76.40;100585.91;4410519;32;20034;-70
2021/04/10 04:29:44;;;;;;;26.52;13.02;;;;;;;6.81;73.85;100586.28;4411573;32;20232;-71
2021/04/10 04:32:10;;;;;;;23.38;11.93;;;;;;;6.95;74.56;100586.09;4405789;32;20393;-71
2021/04/10 04:34:36;;;;;;;28.27;11.90;;;;;;;6.62;75.68;100589.66;4407189;32;20419;-70
2021/04/10 04:37:03;;;;;;;17.92;9.88;;;;;;;6.50;76.24;100582.59;4408212;32;20038;-71
2021/04/10 04:39:30;;;;;;;19.70;10.23;;;;;;;6.50;75.97;100587.41;4406162;32;20102;-71
2021/04/10 04:41:57;;;;;;;18.90;10.52;;;;;;;6.43;75.70;100591.06;4411057;32;20188;-70
2021/04/10 04:44:23;;;;;;;20.98;10.13;;;;;;;6.54;74.82;100591.75;4405633;32;20022;-71
2021/04/10 04:46:48;;;;;;;20.40;10.68;;;;;;;6.55;73.87;100586.94;4406383;32;20046;-71
2021/04/10 04:49:14;;;;;;;24.02;11.32;;;;;;;6.34;73.80;100592.72;4413383;32;20551;-70
2021/04/10 04:51:40;;;;;;;19.35;10.90;;;;;;;6.20;74.04;100592.87;4413591;32;20074;-70
2021/04/10 04:54:05;;;;;;;18.62;10.30;;;;;;;6.19;74.76;100596.87;4410391;32;20390;-71
2021/04/10 04:56:31;;;;;;;19.95;10.77;;;;;;;6.04;75.17;100598.97;4410313;32;20030;-70
2021/04/10 04:58:56;;;;;;;20.12;10.52;;;;;;;5.98;74.40;100595.84;4408425;32;20077;-70
2021/04/10 05:01:22;;;;;;;17.45;10.05;;;;;;;5.97;74.70;100593.44;4412683;32;20042;-71
2021/04/10 05:03:47;;;;;;;20.83;10.70;;;;;;;5.87;74.59;100595.09;4408864;32;20068;-70
2021/04/10 05:06:13;;;;;;;25.58;10.88;;;;;;;5.89;75.60;100595.50;4406822;32;20474;-71
2021/04/10 05:08:39;;;;;;;18.37;10.60;;;;;;;5.87;75.50;100586.72;4412132;32;20133;-71
2021/04/10 05:11:04;;;;;;;20.80;10.57;;;;;;;5.92;75.03;100593.88;4414442;32;20415;-70
2021/04/10 05:13:30;;;;;;;19.25;9.80;;;;;;;5.92;75.16;100600.28;4407548;32;20042;-70
2021/04/10 05:15:57;;;;;;;17.48;9.80;;;;;;;5.96;75.43;100600.25;4416869;32;20060;-71
2021/04/10 05:18:23;;;;;;;20.37;11.00;;;;;;;5.94;75.28;100609.03;4409802;32;20060;-70
2021/04/10 05:20:49;;;;;;;19.10;10.23;;;;;;;5.98;75.56;100600.63;4410547;32;20072;-71
2021/04/10 05:23:20;;;;;;;25.12;11.25;;;;;;;5.93;75.25;100603.88;4410128;32;20374;-71
2021/04/10 05:25:46;;;;;;;21.00;10.65;;;;;;;6.00;75.41;100601.00;4414060;32;20053;-71
2021/04/10 05:28:12;;;;;;;19.70;10.35;;;;;;;5.94;75.40;100611.84;4408322;32;20052;-71
2021/04/10 05:30:38;;;;;;;21.65;11.00;;;;;;;5.91;75.09;100604.28;4410531;32;20045;-70
2021/04/10 05:33:04;;;;;;;23.25;10.65;;;;;;;5.96;75.09;100605.84;4411003;32;20066;-70
2021/04/10 05:35:30;;;;;;;23.73;11.15;;;;;;;5.98;75.10;100611.78;4411673;32;20098;-71
2021/04/10 05:37:56;;;;;;;20.65;10.52;;;;;;;6.02;74.84;100613.34;4408272;32;20084;-71
2021/04/10 05:40:21;;;;;;;25.88;9.95;;;;;;;5.94;74.97;100606.25;4411406;32;20060;-71
2021/04/10 05:42:47;;;;;;;25.60;10.32;;;;;;;5.97;74.94;100615.78;4412305;32;20054;-71
2021/04/10 05:45:13;;;;;;;31.25;11.93;;;;;;;5.94;74.81;100625.81;4409635;32;20509;-71
2021/04/10 05:47:40;;;;;;;22.70;12.13;;;;;;;5.97;75.13;100618.59;4411404;32;20041;-70
2021/04/10 05:50:06;;;;;;;21.85;11.48;;;;;;;5.95;75.61;100624.59;4410295;32;20051;-71
2021/04/10 05:52:33;;;;;;;23.80;11.80;;;;;;;5.92;75.96;100614.22;4411209;32;20050;-71
2021/04/10 05:54:59;;;;;;;30.70;11.55;;;;;;;5.92;76.06;100624.59;4409770;32;20030;-71
2021/04/10 05:57:25;;;;;;;24.65;11.65;;;;;;;5.92;76.21;100630.19;4405915;32;20018;-70
2021/04/10 05:59:51;;;;;;;22.50;12.05;;;;;;;5.86;76.47;100624.25;4414564;32;20473;-71
2021/04/10 06:02:16;;;;;;;23.27;11.48;;;;;;;5.86;76.48;100627.03;4409201;32;20022;-70
2021/04/10 06:04:43;;;;;;;22.80;10.65;;;;;;;5.82;76.63;100626.28;4409423;32;20042;-70
2021/04/10 06:07:08;;;;;;;21.35;11.52;;;;;;;5.82;76.05;100629.06;4411634;32;20022;-71
2021/04/10 06:09:34;;;;;;;23.30;11.52;;;;;;;5.83;76.41;100629.87;4408440;32;20191;-71
2021/04/10 06:12:00;;;;;;;21.60;10.65;;;;;;;5.84;76.43;100635.06;4415368;32;20064;-70
2021/04/10 06:14:25;;;;;;;23.38;11.32;;;;;;;5.97;76.25;100643.72;4409273;32;20046;-70
2021/04/10 06:16:51;;;;;;;27.75;11.45;;;;;;;6.10;75.87;100648.41;4407675;32;20105;-71
2021/04/10 06:19:18;;;;;;;22.45;11.00;;;;;;;6.27;75.71;100654.28;4410442;32;20068;-71
2021/04/10 06:21:44;;;;;;;29.67;13.85;;;;;;;6.44;75.08;100654.13;4408072;32;20387;-71
2021/04/10 06:24:13;;;;;;;33.90;15.70;;;;;;;6.55;74.07;100656.81;4408248;32;20039;-71
2021/04/10 06:26:39;;;;;;;33.88;15.95;;;;;;;6.72;72.35;100658.69;4412055;32;20034;-71
2021/04/10 06:29:05;;;;;;;29.70;14.50;;;;;;;6.59;72.21;100657.59;4412075;32;20713;-71
2021/04/10 06:31:30;;;;;;;33.03;16.48;;;;;;;6.75;72.90;100660.66;4410178;32;20141;-70
2021/04/10 06:33:56;;;;;;;32.90;15.93;;;;;;;6.87;73.10;100663.69;4413459;32;20427;-70
2021/04/10 06:36:24;;;;;;;36.60;16.50;;;;;;;7.01;72.78;100671.16;4407684;32;20031;-71
2021/04/10 06:38:50;;;;;;;30.50;14.20;;;;;;;7.05;72.53;100669.09;4410017;32;20035;-70
2021/04/10 06:41:16;;;;;;;25.33;13.02;;;;;;;7.10;71.87;100663.06;4406560;32;20077;-71
2021/04/10 06:43:43;;;;;;;28.52;12.25;;;;;;;7.08;70.33;100668.25;4410623;32;20068;-70
2021/04/10 06:46:10;;;;;;;20.85;11.77;;;;;;;7.12;70.56;100672.59;4410262;32;20120;-70
2021/04/10 06:48:39;;;;;;;23.55;12.37;;;;;;;7.34;70.76;100679.56;4408398;32;20076;-72
2021/04/10 06:51:05;;;;;;;21.17;11.48;;;;;;;7.50;69.48;100676.16;4405076;32;20149;-71
2021/04/10 06:53:32;;;;;;;23.12;11.15;;;;;;;7.51;68.81;100677.75;4407218;32;20144;-72
2021/04/10 06:56:02;;;;;;;22.90;10.27;;;;;;;7.51;68.83;100678.56;4410170;32;20108;-71
2021/04/10 06:58:54;;;;;;;23.02;10.75;;;;;;;7.45;69.28;100677.44;4410921;32;20525;-71
2021/04/10 07:01:20;;;;;;;22.62;10.75;;;;;;;7.69;68.27;100692.31;4406094;32;20392;-73
2021/04/10 07:03:50;;;;;;;23.55;10.48;;;;;;;7.43;68.59;100693.06;4409593;32;20034;-70
2021/04/10 07:06:16;;;;;;;20.60;10.40;;;;;;;7.36;68.12;100687.53;4410993;32;20040;-70
2021/04/10 07:08:43;;;;;;;22.85;11.25;;;;;;;7.44;68.41;100677.84;4408059;32;20791;-70
2021/04/10 07:11:09;;;;;;;23.20;10.38;;;;;;;7.67;68.80;100686.38;4404234;32;20027;-72
2021/04/10 07:13:35;;;;;;;18.37;10.07;;;;;;;8.02;67.57;100683.06;4411035;32;20141;-72
2021/04/10 07:16:02;;;;;;;17.62;9.98;;;;;;;8.38;66.75;100680.53;4409119;32;20096;-72
2021/04/10 07:18:29;;;;;;;17.48;10.32;;;;;;;8.60;65.09;100681.75;4409788;32;20152;-70
2021/04/10 07:23:56;;;;;;;21.50;11.52;;;;;;;9.00;63.31;100686.25;3984699;32;15028903;-71
2021/04/10 07:27:00;;;;;;;29.02;12.30;;;;;;;9.00;63.31;100686.25;4434255;32;20060;-71
2021/04/10 07:32:25;;;;;;;30.75;13.10;;;;;;;9.43;60.94;100699.06;3986685;32;15022703;-72
2021/04/10 07:34:52;;;;;;;21.02;10.90;;;;;;;9.43;60.94;100699.06;4431570;32;21082;-70
2021/04/10 07:42:50;;;;;;;20.23;10.18;;;;;;;9.74;60.04;100708.03;3985779;32;15022062;-70
2021/04/10 07:45:33;;;;;;;16.85;9.20;;;;;;;9.74;60.04;100708.03;4438971;32;20335;-72
2021/04/10 07:50:38;;;;;;;20.15;9.52;;;;;;;10.09;60.34;100699.66;3985627;32;15022467;-72
2021/04/10 07:53:23;;;;;;;16.42;9.70;;;;;;;10.09;60.34;100699.66;4442915;32;20446;-73
2021/04/10 07:55:50;;;;;;;17.80;9.02;;;;;;;9.68;59.57;100698.53;4442446;32;20068;-74
2021/04/10 08:01:00;;;;;;;19.42;9.02;;;;;;;10.25;58.30;100698.09;3987037;32;15022205;-71
2021/04/10 08:11:44;;;;;;;15.52;8.45;;;;;;;10.48;57.45;100698.72;3985240;32;15022497;-72
2021/04/10 08:16:48;;;;;;;14.40;7.72;;;;;;;10.42;57.50;100691.25;3942500;32;15724602;-73
2021/04/10 08:19:16;;;;;;;13.98;7.53;;;;;;;10.41;56.70;100693.28;4419631;32;20025;-72
2021/04/10 08:27:01;;;;;;;18.27;9.38;;;;;;;10.48;56.31;100700.75;3994237;31;15016068;-72
2021/04/10 08:29:28;;;;;;;17.58;9.13;;;;;;;10.48;56.31;100700.75;4448334;32;20189;-71
2021/04/10 08:31:55;;;;;;;15.45;8.82;;;;;;;10.21;56.98;100697.41;4442653;32;20144;-70
2021/04/10 08:34:21;;;;;;;18.62;8.48;;;;;;;10.31;57.28;100688.69;4448384;32;20844;-72
2021/04/10 08:36:53;;;;;;;18.98;8.52;;;;;;;10.63;55.47;100690.72;4449246;32;20484;-72
2021/04/10 08:39:20;;;;;;;15.10;8.30;;;;;;;11.16;54.48;100692.94;4451077;32;20386;-71
2021/04/10 08:41:47;;;;;;;13.85;7.45;;;;;;;11.49;54.53;100700.06;4449278;32;20042;-72
2021/04/10 08:44:15;;;;;;;13.80;5.97;;;;;;;11.93;53.47;100696.38;4452913;32;20415;-73
2021/04/10 08:46:44;;;;;;;13.07;5.87;;;;;;;12.27;52.75;100692.94;4451868;32;20450;-71
2021/04/10 08:49:14;;;;;;;11.48;5.53;;;;;;;12.48;50.02;100695.84;4447796;32;20369;-71
2021/04/10 08:51:43;;;;;;;11.80;5.70;;;;;;;12.70;49.12;100691.06;4450082;32;20080;-73
2021/04/10 08:54:11;;;;;;;12.57;6.32;;;;;;;12.94;48.32;100692.25;4448887;32;20477;-70
2021/04/10 08:56:38;;;;;;;16.15;6.15;;;;;;;13.32;47.42;100692.94;4450329;32;20430;-72
2021/04/10 08:59:13;;;;;;;11.85;6.18;;;;;;;13.59;47.05;100696.00;4450644;32;20084;-71
2021/04/10 09:01:42;;;;;;;12.82;5.90;;;;;;;13.63;46.44;100699.47;4441631;32;20809;-72
2021/04/10 09:04:10;;;;;;;19.85;7.97;;;;;;;13.46;47.35;100703.75;4431272;32;20073;-73
2021/04/10 09:11:49;;;;;;;14.68;7.72;;;;;;;13.86;47.75;100709.53;3986588;32;15025081;-73
2021/04/10 09:14:43;;;;;;;15.00;6.90;;;;;;;13.86;47.75;100709.53;4442260;32;20029;-72
2021/04/10 09:17:08;;;;;;;14.65;7.25;;;;;;;13.91;45.98;100701.25;4440794;32;20358;-72
2021/04/10 09:19:36;;;;;;;15.57;7.43;;;;;;;14.01;46.24;100704.91;4442343;32;20049;-72
2021/04/10 09:22:04;;;;;;;17.23;7.35;;;;;;;14.03;47.11;100700.34;4438986;32;20077;-71
2021/04/10 09:24:47;;;;;;;12.82;6.80;;;;;;;13.82;46.40;100709.69;4441078;32;20038;-73
2021/04/10 09:27:28;;;;;;;9.00;6.53;;;;;;;13.94;46.06;100708.03;4438412;32;20079;-72
2021/04/10 09:30:04;;;;;;;15.93;6.32;;;;;;;14.01;45.13;100702.88;4441640;32;20416;-71
2021/04/10 09:40:20;;;;;;;12.93;5.82;;;;;;;16.34;41.61;100719.88;3983765;32;15027827;-72
2021/04/10 09:42:52;;;;;;;13.73;5.57;;;;;;;16.34;41.61;100719.88;4439108;32;20045;-74
2021/04/10 09:45:30;;;;;;;13.95;5.60;;;;;;;16.22;40.46;100711.56;4439937;32;20456;-71
2021/04/10 09:58:20;;;;;;;14.60;4.12;;;;;;;16.11;41.03;100712.09;3985124;32;15022462;-70
2021/04/10 10:03:23;;;;;;;18.45;4.43;;;;;;;16.62;39.25;100712.81;3986751;32;15026931;-71
2021/04/10 10:05:51;;;;;;;9.90;3.75;;;;;;;16.63;39.24;100719.34;4439125;32;20013;-73
2021/04/10 10:08:23;;;;;;;8.98;3.67;;;;;;;15.98;40.98;100707.87;4438495;32;20145;-72
2021/04/10 10:10:52;;;;;;;11.68;4.35;;;;;;;16.21;39.95;100707.94;4440658;32;20438;-73
2021/04/10 10:13:21;;;;;;;16.37;4.35;;;;;;;16.07;40.86;100711.44;4437562;32;20081;-72
2021/04/10 10:15:48;;;;;;;30.35;5.75;;;;;;;16.29;40.31;100705.56;4443397;32;20072;-72
2021/04/10 10:18:21;;;;;;;19.05;4.53;;;;;;;17.10;38.84;100713.69;4440603;32;20120;-73
2021/04/10 10:23:42;;;;;;;11.05;3.97;;;;;;;19.13;34.59;100707.25;3987142;32;15031810;-72
2021/04/10 10:26:12;;;;;;;14.73;3.75;;;;;;;19.13;34.59;100707.25;4441112;32;20417;-73
2021/04/10 10:28:41;;;;;;;23.65;4.53;;;;;;;18.85;34.69;100704.03;4444305;32;20041;-72
2021/04/10 10:33:46;;;;;;;13.75;2.80;;;;;;;19.21;33.29;100714.87;3985083;32;15023247;-72
2021/04/10 10:36:13;;;;;;;10.35;2.62;;;;;;;19.21;33.29;100714.87;4442943;32;20077;-73
2021/04/10 10:38:41;;;;;;;17.98;3.42;;;;;;;18.73;33.04;100710.03;4442605;32;20142;-72
2021/04/10 10:41:10;;;;;;;7.72;2.03;;;;;;;18.73;34.57;100704.34;4443287;32;20034;-71
2021/04/10 10:43:37;;;;;;;10.77;2.40;;;;;;;19.04;32.94;100707.38;4443935;32;20401;-73
2021/04/10 10:46:04;;;;;;;5.72;1.80;;;;;;;19.13;32.66;100702.34;4443866;32;20497;-73
2021/04/10 10:51:14;;;;;;;22.33;2.80;;;;;;;19.87;30.23;100709.22;4001346;31;15019140;-74
2021/04/10 10:53:42;;;;;;;15.85;2.45;;;;;;;19.87;30.23;100709.22;4457094;32;21438;-74
2021/04/10 10:58:51;;;;;;;17.73;3.47;;;;;;;20.27;30.29;100699.75;3987177;32;15022623;-73
2021/04/10 11:04:08;;;;;;;9.68;2.15;;;;;;;20.08;30.71;100698.50;3984135;32;15021743;-74
2021/04/10 11:06:44;;;;;;;23.23;2.45;;;;;;;20.28;28.09;100704.19;4442084;32;20077;-74
2021/04/10 11:09:22;;;;;;;5.65;1.73;;;;;;;20.68;28.53;100701.13;4439220;32;20139;-74
2021/04/10 11:11:49;;;;;;;6.12;2.17;;;;;;;21.06;28.19;100697.75;4441379;32;20041;-72
2021/04/10 11:14:21;;;;;;;10.77;2.30;;;;;;;20.67;27.53;100690.97;4438823;32;20460;-72
2021/04/10 11:16:49;;;;;;;10.68;3.40;;;;;;;19.66;29.74;100685.63;4440464;32;20034;-73
2021/04/10 11:19:35;;;;;;;9.15;3.15;;;;;;;18.87;32.46;100686.41;4440727;32;20063;-73
2021/04/10 11:22:04;;;;;;;8.10;3.47;;;;;;;19.18;32.58;100686.59;4439933;32;20481;-72
2021/04/10 11:32:37;;;;;;;8.88;4.28;;;;;;;20.59;29.96;100695.59;3985644;32;15024282;-73
2021/04/10 11:35:07;;;;;;;22.50;4.43;;;;;;;20.59;29.96;100695.59;4435313;32;20127;-73
2021/04/10 11:40:27;;;;;;;13.85;5.18;;;;;;;18.28;33.83;100682.13;3988569;32;15026262;-74
2021/04/10 11:42:56;;;;;;;10.82;3.97;;;;;;;18.28;33.83;100682.13;4443000;32;20720;-72
2021/04/10 11:48:23;;;;;;;13.10;4.87;;;;;;;16.27;36.03;100676.84;3983313;32;15023308;-74
2021/04/10 11:56:30;;;;;;;10.32;5.00;;;;;;;15.71;36.96;100674.66;3980953;32;15151610;-72
2021/04/10 11:59:05;;;;;;;8.65;4.30;;;;;;;15.13;38.14;100665.50;4436539;32;20068;-73
2021/04/10 12:01:32;;;;;;;11.88;4.72;;;;;;;14.00;39.62;100655.25;4430067;32;20022;-73
2021/04/10 12:03:59;;;;;;;10.10;4.53;;;;;;;14.05;40.85;100663.91;4421316;32;20189;-73
2021/04/10 12:09:11;;;;;;;12.53;4.77;;;;;;;13.67;41.65;100654.09;4011778;31;15014563;-73
2021/04/10 12:11:39;;;;;;;8.77;5.32;;;;;;;13.67;41.65;100654.09;4462223;32;20061;-73
2021/04/10 12:14:06;;;;;;;9.50;4.75;;;;;;;12.67;43.77;100638.34;4464488;32;20088;-70
2021/04/10 12:16:34;;;;;;;14.18;5.12;;;;;;;12.59;44.10;100645.47;4461517;32;20080;-73
2021/04/10 12:18:59;;;;;;;13.38;4.75;;;;;;;12.26;44.26;100637.72;4466109;32;20045;-71
2021/04/10 12:21:25;;;;;;;9.80;5.05;;;;;;;11.99;43.72;100638.19;4463553;32;20048;-72
2021/04/10 12:23:51;;;;;;;15.27;4.85;;;;;;;11.95;45.71;100641.13;4467816;32;20110;-72
2021/04/10 12:26:18;;;;;;;10.32;4.90;;;;;;;12.10;45.66;100630.94;4467721;32;20088;-74
2021/04/10 12:28:44;;;;;;;8.85;4.57;;;;;;;12.35;45.12;100632.19;4462643;32;20417;-74
2021/04/10 12:31:10;;;;;;;17.87;4.47;;;;;;;12.29;44.62;100620.69;4464740;32;20059;-71
2021/04/10 12:33:38;;;;;;;13.98;4.70;;;;;;;12.78;43.29;100623.84;4461732;32;20095;-72
2021/04/10 12:36:04;;;;;;;18.10;4.40;;;;;;;13.18;41.13;100620.00;4462491;32;20059;-72
2021/04/10 12:38:30;;;;;;;14.05;5.10;;;;;;;14.00;39.35;100627.72;4461946;32;20510;-72
2021/04/10 12:40:56;;;;;;;9.93;3.55;;;;;;;14.66;37.99;100626.25;4464056;32;20056;-74
2021/04/10 12:43:22;;;;;;;12.23;3.67;;;;;;;15.29;36.69;100628.31;4459456;32;20116;-73
2021/04/10 12:45:48;;;;;;;16.60;3.47;;;;;;;15.45;35.53;100626.00;4462660;32;20053;-73
2021/04/10 12:48:13;;;;;;;15.05;3.58;;;;;;;15.85;33.56;100629.38;4451100;32;20068;-72
2021/04/10 12:50:39;;;;;;;11.65;3.20;;;;;;;16.19;33.18;100627.34;4465965;32;21260;-72
2021/04/10 12:53:06;;;;;;;18.58;3.90;;;;;;;16.32;32.43;100627.94;4463193;32;20095;-72
2021/04/10 12:55:32;;;;;;;20.92;4.12;;;;;;;16.29;32.60;100631.72;4459426;32;21665;-72
2021/04/10 12:57:58;;;;;;;10.60;3.58;;;;;;;16.48;31.34;100628.34;4463884;32;20446;-72
2021/04/10 13:00:24;;;;;;;16.77;3.05;;;;;;;16.22;31.44;100637.72;4467804;32;20671;-72
2021/04/10 13:02:50;;;;;;;18.85;3.60;;;;;;;16.23;31.19;100637.25;4449381;32;20069;-72
2021/04/10 13:05:16;;;;;;;8.88;3.97;;;;;;;15.51;34.89;100634.63;4449093;32;20069;-72
2021/04/10 13:07:42;;;;;;;11.07;4.22;;;;;;;15.07;36.89;100625.66;4448678;32;20033;-72
2021/04/10 13:10:10;;;;;;;14.30;4.22;;;;;;;14.26;38.64;100622.66;4451792;32;20458;-73